x

Gulf Of Maine - 78 Nm East Of Portsmouth, Nh (44005) Wave Buoy

4:50 - Sat 23rd Aug 2014 All times are EDT. -4 hours from GMT.

  • Sig Wave height 3.0ft
  • Peak Period 8s
  • Average Period 4s
  • Wind
    16mph, 20mph gusts
  • Sea Temp 67°f
  • Aire Temp 64°f
  • Sea Pressure 1018.2mb
  • Gulf Of Maine - 78 Nm East Of Portsmouth, Nh
  • Gulf Of Maine - 78 Nm East Of Portsmouth, Nh

More Historic Weather Station data

Upgrade to MSW Pro to gain access to the past 30 days of data for over 8000 Wavebouys and Weather Stations around the globe.

Join Pro

Comparision Forecast

View Surf forecast
   
sáb 08/23 4:50 3ft 8s 4s 16 20 mph 1018.2mb 67f 64f
3:50 3ft 8s 4s 16 18 mph 1018.1mb 67f 65f
2:50 2.5ft 8s 5s 16 18 mph 1018.3mb 67f 64f
1:50 2.5ft 8s 5s 11 13 mph 1018.6mb 67f 63f
12:50 2.5ft 8s 5s 9 11 mph 1018.8mb 67f 63f
vie 08/22 11:50 2.5ft 8s 4s 11 13 mph 1018.9mb 67f 65f
10:50 3ft 7s 5s 13 16 mph 1018.8mb 67f 65f
9:50 3ft 6s 5s 11 13 mph 1019.1mb 67f 65f
8:50 3.5ft 8s 5s 16 18 mph 1019.2mb 67f 65f
7:50 3.5ft 8s 5s 13
mph
1018.9mb 67f 64f
6:50 3.5ft 7s 5s 13 16 mph 1018.7mb 68f 64f
5:50 3.5ft 7s 5s 13 16 mph 1018.9mb 68f 64f
4:50 3.5ft 7s 5s 13 16 mph 1018.9mb 68f 64f
3:50 3.5ft 4s 4s 16 18 mph 1019.2mb 68f 64f
2:50 3ft 8s 4s 18 20 mph 1019.1mb 67f 64f
1:50 2.5ft 4s 4s 16 18 mph 1019.2mb 67f 64f
12:50 2.5ft 4s 4s 16 20 mph 1018.8mb 67f 64f
11:50 2.5ft 4s 4s 16 18 mph 1018.8mb 67f 65f
10:50 2.5ft 4s 4s 16 18 mph 1019mb 67f 65f
9:50 2.5ft 9s 4s 16 18 mph 1018.9mb 66f 65f
8:50 2.5ft 7s 4s 16 20 mph 1018.9mb 66f 65f
7:50 2.5ft 6s 4s 13 16 mph 1019mb 66f 65f
6:50 2.5ft 6s 4s 11
mph
1018.9mb 66f 65f
5:50 2.5ft 7s 5s 11 13 mph 1018.6mb 66f 65f
4:50 2ft 7s 4s 11 13 mph 1018.3mb 66f 66f
3:50 2ft 6s 4s 9 11 mph 1018.2mb 66f 67f
2:50 2ft 6s 4s 9
mph
1018.5mb 66f 66f
1:50 2ft 3s 4s 9 11 mph 1018.5mb 66f 66f
12:50 2ft 3s 4s 11 13 mph 1018.6mb 67f 66f
jue 08/21 11:50 2ft 3s 4s 11 13 mph 1018.6mb 67f 66f
10:50 1.6ft 7s 4s 13
mph
1018.7mb 67f 66f
9:50 1.6ft 6s 5s 11 13 mph 1018.6mb 67f 67f
8:50 1.6ft 6s 5s 7 9 mph 1018.7mb 67f 67f
7:50 1.6ft 6s 5s 4 7 mph 1018.3mb 66f 67f
6:50 1.6ft 7s 5s 7
mph
1018.3mb 67f 67f
5:50 2ft 6s 6s 9 11 mph 1018.1mb 67f 66f
4:50 2ft 7s 6s 9 11 mph 1018.3mb 68f 66f
3:50 2ft 7s 6s 7 9 mph 1018.5mb 68f 67f
2:50 1.6ft 7s 7s 7
mph
1018.6mb 69f 68f
1:50 1.6ft 7s 7s 2
mph
1018.8mb 70f 68f
12:50 1.6ft 7s 7s 2
mph
1018.9mb 71f 68f
11:50 1.3ft 7s 7s 2 4 mph 1018.6mb 70f 68f
10:50 1.6ft 7s 7s  -  mph 1018.9mb 68f 69f
9:50 1.3ft 7s 6s  -  mph 1019.1mb 67f 68f
8:50 1.6ft 6s 6s 2
mph
1018.9mb 67f 67f
7:50 1.6ft 7s 6s 7
mph
1018.1mb 67f 66f
6:50 1.3ft 7s 6s 2
mph
1018.1mb 66f 66f
5:50 1.3ft 6s 6s 2
mph
1017.9mb 66f 65f
4:50 1.3ft 7s 6s  -  2 mph 1017.8mb 66f 65f
3:50 1ft 8s 7s 2
mph
1017.7mb 66f 65f
2:50 1ft 7s 7s 4 7 mph 1017.6mb 67f 65f
1:50 1ft 8s 7s  -  2 mph 1017.6mb 67f 66f
12:50 1ft 7s 7s  -  mph 1017.9mb 67f 66f
mié 08/20 11:50 1ft 7s 7s  -  mph 1017.8mb 67f 66f
10:50 1ft 8s 6s  -  mph 1017.7mb 67f 66f
9:50 1ft 11s 6s  -  2 mph 1017.5mb 67f 66f
8:50 1ft 6s 6s 2 4 mph 1017.3mb 67f 66f
7:50 1.3ft 6s 6s 2 4 mph 1017mb 68f 67f
6:50 1.3ft 6s 6s 2
mph
1016.8mb 68f 68f
5:50 1.3ft 7s 6s 4 7 mph 1016.8mb 68f 68f
4:50 1.3ft 7s 6s 7 9 mph 1016.8mb 68f 68f
3:50 1.3ft 6s 6s 7 9 mph 1016.6mb 69f 67f
2:50 1.3ft 6s 6s 7 9 mph 1016.7mb 69f 67f
1:50 1.3ft 6s 6s 2 4 mph 1016.8mb 69f 67f
12:50 1.3ft 7s 6s 4
mph
1016.7mb 69f 67f
11:50 1ft 7s 6s 4 7 mph 1016.8mb 69f 67f
10:50 1ft 7s 6s 4
mph
1016.5mb 68f 67f
9:50 1ft 7s 6s 2 4 mph 1016.1mb 67f 66f
8:50 1ft 8s 5s  -  2 mph 1016mb 66f 65f
7:50 1ft 6s 5s  -  2 mph 1015.8mb 66f 66f
6:50 1.3ft 7s 5s 2
mph
1015.3mb 66f 65f
5:50 1.3ft 7s 4s  -  2 mph 1014.9mb 66f 64f
4:50  -   -   -  7
mph
- - 65f
3:50 1.3ft 8s 4s 7 9 mph 1014.4mb 66f 65f
2:50 1.3ft 7s 5s 9 11 mph 1014.7mb 66f 66f
1:50 1ft 8s 5s 9 11 mph 1014.6mb 66f 66f
12:50 1.3ft 8s 5s 11
mph
1014.3mb 66f 66f
mar 08/19 11:50 1.3ft 9s 5s 11
mph
1014mb 66f 66f
10:50 1ft 8s 5s 11
mph
1013.7mb 66f 66f
9:50 1.3ft 8s 6s 11
mph
1013.5mb 67f 66f
8:50 1ft 12s 6s 7
mph
1013.4mb 67f 66f
7:50 1.3ft 7s 6s 9
mph
1013.1mb 67f 65f
6:50 1.3ft 9s 6s 7
mph
1012.8mb 67f 66f
5:50 1ft 12s 6s 7
mph
1012.7mb 67f 66f
4:50 1ft 8s 5s 7 9 mph 1012.8mb 67f 66f
3:50 1ft 8s 6s 9
mph
1012.7mb 67f 65f
2:50 1ft 8s 6s 7 9 mph 1012.5mb 67f 65f
1:50 1ft 9s 5s 7
mph
1012.6mb 67f 64f
12:50 1ft 8s 5s 7 9 mph 1012.9mb 67f 64f
11:50  -   -   -  7
mph
- - -
10:50  -   -   -  7 9 mph 1012.7mb 66f 63f